sensor_id;sensor_type;location;lat;lon;timestamp;pressure;altitude;pressure_sealevel;temperature;humidity
20889;BME280;10604;51.976;7.594;2023-04-15T00:01:54;100148.13;;;7.88;76.02
20889;BME280;10604;51.976;7.594;2023-04-15T00:04:19;100142.19;;;7.81;76.24
20889;BME280;10604;51.976;7.594;2023-04-15T00:06:51;100135.81;;;7.59;77.04
20889;BME280;10604;51.976;7.594;2023-04-15T00:09:18;100137.22;;;7.71;77.07
20889;BME280;10604;51.976;7.594;2023-04-15T00:11:44;100139.44;;;7.86;76.66
20889;BME280;10604;51.976;7.594;2023-04-15T00:14:11;100131.09;;;7.72;76.65
20889;BME280;10604;51.976;7.594;2023-04-15T00:16:37;100133.78;;;7.69;75.83
20889;BME280;10604;51.976;7.594;2023-04-15T00:19:02;100140.06;;;7.63;76.30
20889;BME280;10604;51.976;7.594;2023-04-15T00:21:27;100130.41;;;7.65;76.99
20889;BME280;10604;51.976;7.594;2023-04-15T00:23:53;100126.09;;;7.63;77.50
20889;BME280;10604;51.976;7.594;2023-04-15T00:26:19;100129.28;;;7.74;76.63
20889;BME280;10604;51.976;7.594;2023-04-15T00:28:45;100131.59;;;7.54;77.08
20889;BME280;10604;51.976;7.594;2023-04-15T00:31:11;100131.03;;;7.42;76.95
20889;BME280;10604;51.976;7.594;2023-04-15T00:33:36;100133.66;;;7.42;77.96
20889;BME280;10604;51.976;7.594;2023-04-15T00:36:02;100125.84;;;7.39;77.99
20889;BME280;10604;51.976;7.594;2023-04-15T00:38:28;100120.50;;;7.44;77.62
20889;BME280;10604;51.976;7.594;2023-04-15T00:40:54;100114.47;;;7.40;77.08
20889;BME280;10604;51.976;7.594;2023-04-15T00:43:20;100119.00;;;7.34;77.45
20889;BME280;10604;51.976;7.594;2023-04-15T00:45:45;100127.19;;;7.23;77.26
20889;BME280;10604;51.976;7.594;2023-04-15T00:48:11;100116.59;;;7.26;77.93
20889;BME280;10604;51.976;7.594;2023-04-15T00:50:37;100127.69;;;7.37;77.85
20889;BME280;10604;51.976;7.594;2023-04-15T00:53:03;100135.44;;;7.40;77.70
20889;BME280;10604;51.976;7.594;2023-04-15T00:55:29;100130.13;;;7.43;76.87
20889;BME280;10604;51.976;7.594;2023-04-15T00:57:56;100136.47;;;7.35;77.41
20889;BME280;10604;51.976;7.594;2023-04-15T01:00:21;100134.38;;;7.15;77.58
20889;BME280;10604;51.976;7.594;2023-04-15T01:02:47;100130.94;;;7.13;78.06
20889;BME280;10604;51.976;7.594;2023-04-15T01:05:13;100131.09;;;7.07;78.54
20889;BME280;10604;51.976;7.594;2023-04-15T01:07:41;100123.97;;;7.12;77.92
20889;BME280;10604;51.976;7.594;2023-04-15T01:10:07;100128.91;;;7.24;77.81
20889;BME280;10604;51.976;7.594;2023-04-15T01:12:33;100125.78;;;7.10;78.04
20889;BME280;10604;51.976;7.594;2023-04-15T01:14:59;100126.06;;;6.98;78.23
20889;BME280;10604;51.976;7.594;2023-04-15T01:17:26;100130.56;;;6.94;78.00
20889;BME280;10604;51.976;7.594;2023-04-15T01:19:55;100118.75;;;7.11;78.74
20889;BME280;10604;51.976;7.594;2023-04-15T01:22:22;100128.50;;;7.05;78.55
20889;BME280;10604;51.976;7.594;2023-04-15T01:25:04;100127.81;;;6.99;77.91
20889;BME280;10604;51.976;7.594;2023-04-15T01:27:30;100128.19;;;6.84;78.64
20889;BME280;10604;51.976;7.594;2023-04-15T01:29:56;100131.78;;;6.80;79.02
20889;BME280;10604;51.976;7.594;2023-04-15T01:32:22;100133.28;;;6.90;78.92
20889;BME280;10604;51.976;7.594;2023-04-15T01:34:48;100136.66;;;6.95;78.54
20889;BME280;10604;51.976;7.594;2023-04-15T01:37:13;100134.03;;;6.95;78.14
20889;BME280;10604;51.976;7.594;2023-04-15T01:39:39;100134.78;;;7.00;78.96
20889;BME280;10604;51.976;7.594;2023-04-15T01:42:05;100137.38;;;7.01;80.79
20889;BME280;10604;51.976;7.594;2023-04-15T01:44:31;100131.25;;;7.01;79.61
20889;BME280;10604;51.976;7.594;2023-04-15T01:46:56;100125.91;;;7.04;79.15
20889;BME280;10604;51.976;7.594;2023-04-15T01:49:21;100127.81;;;6.99;79.71
20889;BME280;10604;51.976;7.594;2023-04-15T01:51:47;100124.22;;;7.03;78.63
20889;BME280;10604;51.976;7.594;2023-04-15T01:54:12;100128.72;;;6.96;78.95
20889;BME280;10604;51.976;7.594;2023-04-15T01:56:38;100127.97;;;6.93;79.04
20889;BME280;10604;51.976;7.594;2023-04-15T01:59:03;100129.69;;;6.94;80.81
20889;BME280;10604;51.976;7.594;2023-04-15T02:01:28;100122.34;;;7.08;79.96
20889;BME280;10604;51.976;7.594;2023-04-15T02:03:54;100131.31;;;6.98;79.16
20889;BME280;10604;51.976;7.594;2023-04-15T02:06:19;100137.75;;;6.86;80.18
20889;BME280;10604;51.976;7.594;2023-04-15T02:08:45;100133.34;;;6.88;79.66
20889;BME280;10604;51.976;7.594;2023-04-15T02:11:10;100135.16;;;6.85;79.90
20889;BME280;10604;51.976;7.594;2023-04-15T02:13:36;100135.38;;;6.76;80.28
20889;BME280;10604;51.976;7.594;2023-04-15T02:16:02;100132.16;;;6.64;79.81
20889;BME280;10604;51.976;7.594;2023-04-15T02:18:27;100137.94;;;6.79;80.54
20889;BME280;10604;51.976;7.594;2023-04-15T02:20:53;100135.38;;;6.76;80.98
20889;BME280;10604;51.976;7.594;2023-04-15T02:23:18;100137.03;;;6.80;80.67
20889;BME280;10604;51.976;7.594;2023-04-15T02:25:44;100138.25;;;6.65;80.92
20889;BME280;10604;51.976;7.594;2023-04-15T02:28:09;100139.13;;;6.65;80.39
20889;BME280;10604;51.976;7.594;2023-04-15T02:30:35;100141.25;;;6.50;80.47
20889;BME280;10604;51.976;7.594;2023-04-15T02:33:00;100142.84;;;6.55;80.63
20889;BME280;10604;51.976;7.594;2023-04-15T02:35:26;100149.28;;;6.42;80.07
20889;BME280;10604;51.976;7.594;2023-04-15T02:37:51;100144.75;;;6.49;80.49
20889;BME280;10604;51.976;7.594;2023-04-15T02:40:17;100153.63;;;6.43;80.00
20889;BME280;10604;51.976;7.594;2023-04-15T02:42:43;100157.38;;;6.68;80.51
20889;BME280;10604;51.976;7.594;2023-04-15T02:45:09;100156.63;;;6.63;80.31
20889;BME280;10604;51.976;7.594;2023-04-15T02:47:36;100162.53;;;6.73;81.34
20889;BME280;10604;51.976;7.594;2023-04-15T02:50:06;100165.13;;;6.75;80.93
20889;BME280;10604;51.976;7.594;2023-04-15T02:52:31;100177.31;;;6.76;80.84
20889;BME280;10604;51.976;7.594;2023-04-15T02:54:57;100175.22;;;6.90;80.21
20889;BME280;10604;51.976;7.594;2023-04-15T02:57:27;100168.50;;;6.78;80.88
20889;BME280;10604;51.976;7.594;2023-04-15T02:59:53;100170.22;;;6.81;82.71
20889;BME280;10604;51.976;7.594;2023-04-15T03:02:19;100174.44;;;6.86;80.99
20889;BME280;10604;51.976;7.594;2023-04-15T03:04:44;100173.53;;;6.87;81.56
20889;BME280;10604;51.976;7.594;2023-04-15T03:07:10;100178.22;;;6.75;81.60
20889;BME280;10604;51.976;7.594;2023-04-15T03:09:35;100179.13;;;6.74;81.78
20889;BME280;10604;51.976;7.594;2023-04-15T03:12:01;100180.16;;;6.66;82.13
20889;BME280;10604;51.976;7.594;2023-04-15T03:14:26;100175.88;;;6.62;81.61
20889;BME280;10604;51.976;7.594;2023-04-15T03:16:52;100179.31;;;6.64;81.67
20889;BME280;10604;51.976;7.594;2023-04-15T03:19:17;100168.53;;;6.77;81.52
20889;BME280;10604;51.976;7.594;2023-04-15T03:21:43;100186.16;;;6.72;80.62
20889;BME280;10604;51.976;7.594;2023-04-15T03:24:08;100174.81;;;6.69;81.10
20889;BME280;10604;51.976;7.594;2023-04-15T03:26:33;100166.22;;;6.64;81.23
20889;BME280;10604;51.976;7.594;2023-04-15T03:28:59;100179.25;;;6.67;81.23
20889;BME280;10604;51.976;7.594;2023-04-15T03:31:24;100173.94;;;6.71;81.19
20889;BME280;10604;51.976;7.594;2023-04-15T03:33:50;100168.84;;;6.64;81.08
20889;BME280;10604;51.976;7.594;2023-04-15T03:36:15;100170.88;;;6.53;81.11
20889;BME280;10604;51.976;7.594;2023-04-15T03:38:41;100167.06;;;6.66;82.27
20889;BME280;10604;51.976;7.594;2023-04-15T03:41:06;100168.69;;;6.71;81.72
20889;BME280;10604;51.976;7.594;2023-04-15T03:43:32;100172.06;;;6.76;82.20
20889;BME280;10604;51.976;7.594;2023-04-15T03:45:57;100173.56;;;6.86;80.71
20889;BME280;10604;51.976;7.594;2023-04-15T03:48:22;100182.13;;;6.94;80.80
20889;BME280;10604;51.976;7.594;2023-04-15T03:50:48;100181.41;;;6.87;80.39
20889;BME280;10604;51.976;7.594;2023-04-15T03:53:14;100175.66;;;6.72;80.52
20889;BME280;10604;51.976;7.594;2023-04-15T03:55:39;100182.78;;;6.66;80.93
20889;BME280;10604;51.976;7.594;2023-04-15T03:58:05;100185.53;;;6.60;81.22
20889;BME280;10604;51.976;7.594;2023-04-15T04:00:30;100195.09;;;6.61;81.25
20889;BME280;10604;51.976;7.594;2023-04-15T04:02:56;100190.00;;;6.55;81.49
20889;BME280;10604;51.976;7.594;2023-04-15T04:05:21;100183.19;;;6.48;81.04
20889;BME280;10604;51.976;7.594;2023-04-15T04:07:47;100183.47;;;6.36;81.53
20889;BME280;10604;51.976;7.594;2023-04-15T04:10:12;100179.22;;;6.31;81.70
20889;BME280;10604;51.976;7.594;2023-04-15T04:12:37;100172.25;;;6.29;82.30
20889;BME280;10604;51.976;7.594;2023-04-15T04:15:03;100176.34;;;6.41;82.34
20889;BME280;10604;51.976;7.594;2023-04-15T04:17:29;100178.72;;;6.53;82.27
20889;BME280;10604;51.976;7.594;2023-04-15T04:19:54;100168.91;;;6.61;82.22
20889;BME280;10604;51.976;7.594;2023-04-15T04:22:23;100176.00;;;6.56;81.63
20889;BME280;10604;51.976;7.594;2023-04-15T04:24:49;100177.31;;;6.76;83.05
20889;BME280;10604;51.976;7.594;2023-04-15T04:27:15;100184.72;;;6.58;82.97
20889;BME280;10604;51.976;7.594;2023-04-15T04:29:40;100184.72;;;6.58;82.76
20889;BME280;10604;51.976;7.594;2023-04-15T04:32:06;100184.56;;;6.64;82.62
20889;BME280;10604;51.976;7.594;2023-04-15T04:34:31;100185.41;;;6.66;83.32
20889;BME280;10604;51.976;7.594;2023-04-15T04:36:56;100185.75;;;6.88;82.74
20889;BME280;10604;51.976;7.594;2023-04-15T04:39:22;100190.03;;;6.91;82.51
20889;BME280;10604;51.976;7.594;2023-04-15T04:41:47;100195.31;;;6.89;82.51
20889;BME280;10604;51.976;7.594;2023-04-15T04:44:13;100197.16;;;6.86;82.99
20889;BME280;10604;51.976;7.594;2023-04-15T04:46:38;100208.25;;;6.97;83.00
20889;BME280;10604;51.976;7.594;2023-04-15T04:49:04;100208.31;;;6.94;83.10
20889;BME280;10604;51.976;7.594;2023-04-15T04:51:30;100210.06;;;6.95;82.77
20889;BME280;10604;51.976;7.594;2023-04-15T04:53:56;100203.00;;;6.97;82.65
20889;BME280;10604;51.976;7.594;2023-04-15T04:56:22;100212.22;;;7.13;82.87
20889;BME280;10604;51.976;7.594;2023-04-15T04:58:47;100219.94;;;7.19;82.92
20889;BME280;10604;51.976;7.594;2023-04-15T05:01:12;100223.59;;;7.12;83.05
20889;BME280;10604;51.976;7.594;2023-04-15T05:03:38;100218.00;;;7.26;83.91
20889;BME280;10604;51.976;7.594;2023-04-15T05:06:03;100231.06;;;7.29;83.62
20889;BME280;10604;51.976;7.594;2023-04-15T05:08:31;100224.34;;;7.53;83.73
20889;BME280;10604;51.976;7.594;2023-04-15T05:10:57;100229.72;;;7.46;83.87
20889;BME280;10604;51.976;7.594;2023-04-15T05:13:22;100233.28;;;7.45;84.46
20889;BME280;10604;51.976;7.594;2023-04-15T05:15:47;100240.22;;;7.46;83.77
20889;BME280;10604;51.976;7.594;2023-04-15T05:18:13;100249.00;;;7.45;83.87
20889;BME280;10604;51.976;7.594;2023-04-15T05:20:38;100252.38;;;7.51;83.90
20889;BME280;10604;51.976;7.594;2023-04-15T05:23:04;100245.00;;;7.65;84.05
20889;BME280;10604;51.976;7.594;2023-04-15T05:25:29;100253.38;;;7.79;83.58
20889;BME280;10604;51.976;7.594;2023-04-15T05:27:55;100253.38;;;7.79;83.59
20889;BME280;10604;51.976;7.594;2023-04-15T05:30:20;100258.28;;;7.91;84.09
20889;BME280;10604;51.976;7.594;2023-04-15T05:32:46;100256.72;;;8.16;83.99
20889;BME280;10604;51.976;7.594;2023-04-15T05:35:11;100253.09;;;8.20;82.92
20889;BME280;10604;51.976;7.594;2023-04-15T05:37:37;100270.44;;;8.26;83.50
20889;BME280;10604;51.976;7.594;2023-04-15T05:40:02;100270.94;;;8.40;83.31
20889;BME280;10604;51.976;7.594;2023-04-15T05:42:28;100267.63;;;8.34;83.62
20889;BME280;10604;51.976;7.594;2023-04-15T05:44:54;100272.38;;;8.52;83.48
20889;BME280;10604;51.976;7.594;2023-04-15T05:47:19;100266.75;;;8.64;83.34
20889;BME280;10604;51.976;7.594;2023-04-15T05:49:45;100273.81;;;8.62;82.43
20889;BME280;10604;51.976;7.594;2023-04-15T05:52:10;100274.97;;;8.81;82.11
20889;BME280;10604;51.976;7.594;2023-04-15T05:54:36;100268.25;;;8.73;82.27
20889;BME280;10604;51.976;7.594;2023-04-15T05:57:01;100273.78;;;8.91;82.02
20889;BME280;10604;51.976;7.594;2023-04-15T05:59:26;100263.91;;;8.99;81.54
20889;BME280;10604;51.976;7.594;2023-04-15T06:01:52;100275.34;;;8.98;81.39
20889;BME280;10604;51.976;7.594;2023-04-15T06:04:18;100276.66;;;9.12;81.39
20889;BME280;10604;51.976;7.594;2023-04-15T06:06:43;100268.22;;;9.02;81.39
20889;BME280;10604;51.976;7.594;2023-04-15T06:09:09;100278.16;;;9.20;80.62
20889;BME280;10604;51.976;7.594;2023-04-15T06:11:35;100270.41;;;9.42;80.31
20889;BME280;10604;51.976;7.594;2023-04-15T06:14:00;100282.31;;;9.54;80.14
20889;BME280;10604;51.976;7.594;2023-04-15T06:16:26;100288.44;;;9.54;79.62
20889;BME280;10604;51.976;7.594;2023-04-15T06:18:51;100291.88;;;9.56;79.78
20889;BME280;10604;51.976;7.594;2023-04-15T06:21:17;100299.16;;;9.74;78.85
20889;BME280;10604;51.976;7.594;2023-04-15T06:23:42;100296.94;;;9.62;78.51
20889;BME280;10604;51.976;7.594;2023-04-15T06:26:08;100301.38;;;9.60;78.80
20889;BME280;10604;51.976;7.594;2023-04-15T06:28:33;100303.72;;;9.69;79.04
20889;BME280;10604;51.976;7.594;2023-04-15T06:30:58;100306.28;;;9.72;78.55
20889;BME280;10604;51.976;7.594;2023-04-15T06:33:25;100307.13;;;9.73;78.57
20889;BME280;10604;51.976;7.594;2023-04-15T06:35:51;100307.06;;;9.74;77.68
20889;BME280;10604;51.976;7.594;2023-04-15T06:38:16;100306.72;;;9.85;78.79
20889;BME280;10604;51.976;7.594;2023-04-15T06:40:42;100322.25;;;9.93;77.53
20889;BME280;10604;51.976;7.594;2023-04-15T06:43:07;100318.72;;;9.94;77.78
20889;BME280;10604;51.976;7.594;2023-04-15T06:45:33;100327.19;;;10.02;77.13
20889;BME280;10604;51.976;7.594;2023-04-15T06:47:59;100330.59;;;10.05;76.27
20889;BME280;10604;51.976;7.594;2023-04-15T06:50:24;100325.28;;;10.07;77.14
20889;BME280;10604;51.976;7.594;2023-04-15T06:52:50;100324.66;;;10.25;76.95
20889;BME280;10604;51.976;7.594;2023-04-15T06:55:15;100321.50;;;10.14;77.16
20889;BME280;10604;51.976;7.594;2023-04-15T06:57:40;100323.19;;;10.41;76.50
20889;BME280;10604;51.976;7.594;2023-04-15T07:00:06;100316.75;;;10.25;76.56
20889;BME280;10604;51.976;7.594;2023-04-15T07:02:32;100320.78;;;10.35;76.51
20889;BME280;10604;51.976;7.594;2023-04-15T07:04:58;100324.09;;;10.40;75.35
20889;BME280;10604;51.976;7.594;2023-04-15T07:07:23;100330.19;;;10.42;76.18
20889;BME280;10604;51.976;7.594;2023-04-15T07:09:49;100327.44;;;10.45;76.06
20889;BME280;10604;51.976;7.594;2023-04-15T07:12:15;100327.44;;;10.45;75.83
20889;BME280;10604;51.976;7.594;2023-04-15T07:14:40;100318.53;;;10.73;74.93
20889;BME280;10604;51.976;7.594;2023-04-15T07:17:07;100322.50;;;10.83;74.81
20889;BME280;10604;51.976;7.594;2023-04-15T07:19:32;100324.25;;;10.84;74.29
20889;BME280;10604;51.976;7.594;2023-04-15T07:21:58;100325.25;;;11.03;74.36
20889;BME280;10604;51.976;7.594;2023-04-15T07:24:23;100331.00;;;10.91;74.64
20889;BME280;10604;51.976;7.594;2023-04-15T07:26:52;100325.22;;;10.81;74.68
20889;BME280;10604;51.976;7.594;2023-04-15T07:29:17;100331.88;;;10.91;74.64
20889;BME280;10604;51.976;7.594;2023-04-15T07:31:43;100327.97;;;11.23;73.80
20889;BME280;10604;51.976;7.594;2023-04-15T07:34:08;100325.03;;;11.31;73.19
20889;BME280;10604;51.976;7.594;2023-04-15T07:36:33;100328.13;;;11.42;73.26
20889;BME280;10604;51.976;7.594;2023-04-15T07:38:59;100330.91;;;11.37;73.27
20889;BME280;10604;51.976;7.594;2023-04-15T07:41:27;100327.38;;;11.38;73.01
20889;BME280;10604;51.976;7.594;2023-04-15T07:43:52;100325.06;;;11.73;72.40
20889;BME280;10604;51.976;7.594;2023-04-15T07:46:18;100334.97;;;11.68;72.26
20889;BME280;10604;51.976;7.594;2023-04-15T07:48:43;100337.28;;;11.97;71.54
20889;BME280;10604;51.976;7.594;2023-04-15T07:51:08;100335.56;;;11.96;71.58
20889;BME280;10604;51.976;7.594;2023-04-15T07:53:34;100338.88;;;12.01;71.68
20889;BME280;10604;51.976;7.594;2023-04-15T07:56:00;100342.31;;;12.44;70.93
20889;BME280;10604;51.976;7.594;2023-04-15T07:58:25;100347.66;;;12.81;69.22
20889;BME280;10604;51.976;7.594;2023-04-15T08:00:51;100348.34;;;12.66;68.62
20889;BME280;10604;51.976;7.594;2023-04-15T08:03:17;100354.63;;;12.25;69.46
20889;BME280;10604;51.976;7.594;2023-04-15T08:05:42;100353.56;;;12.29;69.62
20889;BME280;10604;51.976;7.594;2023-04-15T08:08:08;100356.06;;;12.11;70.04
20889;BME280;10604;51.976;7.594;2023-04-15T08:10:33;100351.06;;;12.05;70.38
20889;BME280;10604;51.976;7.594;2023-04-15T08:12:58;100357.53;;;12.39;70.19
20889;BME280;10604;51.976;7.594;2023-04-15T08:15:25;100370.09;;;12.13;69.78
20889;BME280;10604;51.976;7.594;2023-04-15T08:17:50;100364.00;;;12.11;70.70
20889;BME280;10604;51.976;7.594;2023-04-15T08:20:16;100364.81;;;12.13;70.75
20889;BME280;10604;51.976;7.594;2023-04-15T08:22:41;100370.09;;;12.13;70.94
20889;BME280;10604;51.976;7.594;2023-04-15T08:25:07;100366.03;;;11.85;71.39
20889;BME280;10604;51.976;7.594;2023-04-15T08:27:33;100367.59;;;11.67;71.90
20889;BME280;10604;51.976;7.594;2023-04-15T08:29:59;100363.88;;;11.51;72.90
20889;BME280;10604;51.976;7.594;2023-04-15T08:32:24;100372.56;;;11.53;73.72
20889;BME280;10604;51.976;7.594;2023-04-15T08:34:50;100365.19;;;11.39;73.99
20889;BME280;10604;51.976;7.594;2023-04-15T08:37:16;100363.63;;;11.57;73.75
20889;BME280;10604;51.976;7.594;2023-04-15T08:39:41;100364.84;;;11.70;73.79
20889;BME280;10604;51.976;7.594;2023-04-15T08:42:11;100367.66;;;11.65;73.50
20889;BME280;10604;51.976;7.594;2023-04-15T08:44:41;100377.56;;;11.82;73.24
20889;BME280;10604;51.976;7.594;2023-04-15T08:47:12;100365.56;;;11.95;73.00
20889;BME280;10604;51.976;7.594;2023-04-15T08:49:41;100374.56;;;11.91;73.22
20889;BME280;10604;51.976;7.594;2023-04-15T08:52:07;100369.78;;;11.79;73.89
20889;BME280;10604;51.976;7.594;2023-04-15T08:54:33;100368.03;;;12.00;73.21
20889;BME280;10604;51.976;7.594;2023-04-15T08:56:59;100373.06;;;12.06;73.57
20889;BME280;10604;51.976;7.594;2023-04-15T08:59:26;100370.81;;;12.17;73.15
20889;BME280;10604;51.976;7.594;2023-04-15T09:01:52;100382.25;;;12.18;72.72
20889;BME280;10604;51.976;7.594;2023-04-15T09:04:19;100384.00;;;11.97;73.28
20889;BME280;10604;51.976;7.594;2023-04-15T09:06:44;100379.09;;;11.88;73.94
20889;BME280;10604;51.976;7.594;2023-04-15T09:09:11;100389.06;;;11.81;74.09
20889;BME280;10604;51.976;7.594;2023-04-15T09:11:38;100390.97;;;11.99;74.19
20889;BME280;10604;51.976;7.594;2023-04-15T09:14:04;100403.06;;;11.83;73.96
20889;BME280;10604;51.976;7.594;2023-04-15T09:16:30;100394.25;;;12.04;73.75
20889;BME280;10604;51.976;7.594;2023-04-15T09:18:56;100398.47;;;12.08;73.59
20889;BME280;10604;51.976;7.594;2023-04-15T09:21:22;100392.81;;;12.18;73.82
20889;BME280;10604;51.976;7.594;2023-04-15T09:23:59;100396.13;;;12.23;73.11
20889;BME280;10604;51.976;7.594;2023-04-15T09:26:35;100408.09;;;12.51;72.92
20889;BME280;10604;51.976;7.594;2023-04-15T09:29:11;100399.94;;;12.15;72.91
20889;BME280;10604;51.976;7.594;2023-04-15T09:31:40;100401.28;;;12.26;72.80
20889;BME280;10604;51.976;7.594;2023-04-15T09:34:06;100406.72;;;12.63;71.56
20889;BME280;10604;51.976;7.594;2023-04-15T09:39:12;100416.72;;;12.57;71.80
20889;BME280;10604;51.976;7.594;2023-04-15T09:41:38;100414.91;;;12.37;72.09
20889;BME280;10604;51.976;7.594;2023-04-15T09:44:05;100411.59;;;12.32;72.31
20889;BME280;10604;51.976;7.594;2023-04-15T09:46:44;100414.53;;;12.46;72.36
20889;BME280;10604;51.976;7.594;2023-04-15T09:49:10;100419.81;;;12.46;71.68
20889;BME280;10604;51.976;7.594;2023-04-15T09:51:36;100418.63;;;12.33;72.88
20889;BME280;10604;51.976;7.594;2023-04-15T09:54:02;100419.44;;;12.55;72.36
20889;BME280;10604;51.976;7.594;2023-04-15T09:56:36;100411.50;;;12.35;72.73
20889;BME280;10604;51.976;7.594;2023-04-15T09:59:04;100419.53;;;12.32;72.95
20889;BME280;10604;51.976;7.594;2023-04-15T10:01:30;100420.78;;;12.43;72.38
20889;BME280;10604;51.976;7.594;2023-04-15T10:03:56;100422.00;;;12.57;72.31
20889;BME280;10604;51.976;7.594;2023-04-15T10:06:24;100426.72;;;12.50;72.67
20889;BME280;10604;51.976;7.594;2023-04-15T10:08:50;100420.72;;;12.45;73.28
20889;BME280;10604;51.976;7.594;2023-04-15T10:11:17;100423.25;;;12.48;72.69
20889;BME280;10604;51.976;7.594;2023-04-15T10:13:45;100429.16;;;12.54;73.44
20889;BME280;10604;51.976;7.594;2023-04-15T10:16:14;100433.97;;;12.45;73.23
20889;BME280;10604;51.976;7.594;2023-04-15T10:18:43;100439.19;;;12.26;73.96
20889;BME280;10604;51.976;7.594;2023-04-15T10:21:09;100431.03;;;12.31;74.27
20889;BME280;10604;51.976;7.594;2023-04-15T10:23:35;100438.56;;;12.20;74.09
20889;BME280;10604;51.976;7.594;2023-04-15T10:26:03;100432.75;;;12.32;74.18
20889;BME280;10604;51.976;7.594;2023-04-15T10:28:29;100430.13;;;12.52;73.56
20889;BME280;10604;51.976;7.594;2023-04-15T10:30:55;100438.75;;;12.57;73.03
20889;BME280;10604;51.976;7.594;2023-04-15T10:33:22;100439.94;;;12.70;73.22
20889;BME280;10604;51.976;7.594;2023-04-15T10:35:49;100443.78;;;12.63;73.74
20889;BME280;10604;51.976;7.594;2023-04-15T10:41:14;100438.06;;;12.72;73.45
20889;BME280;10604;51.976;7.594;2023-04-15T10:46:43;100446.13;;;12.89;73.40
20889;BME280;10604;51.976;7.594;2023-04-15T10:49:24;100450.63;;;12.67;73.88
20889;BME280;10604;51.976;7.594;2023-04-15T10:51:57;100442.44;;;12.73;73.31
20889;BME280;10604;51.976;7.594;2023-04-15T10:57:15;100446.59;;;12.59;74.87
20889;BME280;10604;51.976;7.594;2023-04-15T11:00:01;100446.25;;;12.86;73.58
20889;BME280;10604;51.976;7.594;2023-04-15T11:02:42;100446.41;;;12.63;74.58
20889;BME280;10604;51.976;7.594;2023-04-15T11:05:09;100448.47;;;12.77;74.64
20889;BME280;10604;51.976;7.594;2023-04-15T11:07:46;100457.00;;;12.83;74.30
20889;BME280;10604;51.976;7.594;2023-04-15T11:12:38;100458.44;;;12.90;73.32
20889;BME280;10604;51.976;7.594;2023-04-15T11:17:51;100463.19;;;12.82;74.36
20889;BME280;10604;51.976;7.594;2023-04-15T11:20:17;100465.47;;;12.91;74.63
20889;BME280;10604;51.976;7.594;2023-04-15T11:22:49;100465.31;;;12.74;74.60
20889;BME280;10604;51.976;7.594;2023-04-15T11:25:25;100467.66;;;12.62;74.54
20889;BME280;10604;51.976;7.594;2023-04-15T11:27:52;100472.72;;;12.46;74.89
20889;BME280;10604;51.976;7.594;2023-04-15T11:30:22;100471.41;;;12.56;74.90
20889;BME280;10604;51.976;7.594;2023-04-15T11:32:52;100476.13;;;12.70;75.41
20889;BME280;10604;51.976;7.594;2023-04-15T11:35:18;100473.56;;;12.87;74.44
20889;BME280;10604;51.976;7.594;2023-04-15T11:37:47;100481.72;;;12.82;74.87
20889;BME280;10604;51.976;7.594;2023-04-15T11:40:14;100480.00;;;12.81;74.86
20889;BME280;10604;51.976;7.594;2023-04-15T11:42:43;100488.84;;;13.01;74.69
20889;BME280;10604;51.976;7.594;2023-04-15T11:45:12;100497.47;;;13.06;74.42
20889;BME280;10604;51.976;7.594;2023-04-15T11:47:38;100502.78;;;13.26;73.98
20889;BME280;10604;51.976;7.594;2023-04-15T11:50:17;100497.59;;;13.03;74.59
20889;BME280;10604;51.976;7.594;2023-04-15T11:55:18;100491.88;;;13.13;74.44
20889;BME280;10604;51.976;7.594;2023-04-15T11:57:44;100501.00;;;13.06;74.58
20889;BME280;10604;51.976;7.594;2023-04-15T12:00:09;100493.38;;;12.99;74.72
20889;BME280;10604;51.976;7.594;2023-04-15T12:02:38;100499.97;;;13.09;74.83
20889;BME280;10604;51.976;7.594;2023-04-15T12:05:04;100504.25;;;12.92;74.41
20889;BME280;10604;51.976;7.594;2023-04-15T12:07:30;100506.69;;;12.97;74.63
20889;BME280;10604;51.976;7.594;2023-04-15T12:09:56;100504.56;;;13.05;74.76
20889;BME280;10604;51.976;7.594;2023-04-15T12:12:26;100513.16;;;13.10;74.83
20889;BME280;10604;51.976;7.594;2023-04-15T12:14:52;100515.22;;;13.24;74.42
20889;BME280;10604;51.976;7.594;2023-04-15T12:17:17;100508.19;;;13.23;74.26
20889;BME280;10604;51.976;7.594;2023-04-15T12:19:43;100525.81;;;13.24;74.27
20889;BME280;10604;51.976;7.594;2023-04-15T12:22:14;100516.94;;;13.25;74.56
20889;BME280;10604;51.976;7.594;2023-04-15T12:24:42;100517.84;;;13.04;75.21
20889;BME280;10604;51.976;7.594;2023-04-15T12:27:14;100531.03;;;13.05;75.44
20889;BME280;10604;51.976;7.594;2023-04-15T12:29:41;100523.16;;;13.04;75.30
20889;BME280;10604;51.976;7.594;2023-04-15T12:32:08;100530.72;;;12.92;76.32
20889;BME280;10604;51.976;7.594;2023-04-15T12:34:38;100537.69;;;12.93;76.43
20889;BME280;10604;51.976;7.594;2023-04-15T12:37:05;100542.22;;;13.12;75.55
20889;BME280;10604;51.976;7.594;2023-04-15T12:39:34;100548.78;;;13.03;75.50
20889;BME280;10604;51.976;7.594;2023-04-15T12:42:00;100548.56;;;12.87;75.73
20889;BME280;10604;51.976;7.594;2023-04-15T12:44:26;100553.09;;;13.06;74.83
20889;BME280;10604;51.976;7.594;2023-04-15T12:46:52;100552.06;;;13.08;75.59
20889;BME280;10604;51.976;7.594;2023-04-15T12:49:18;100552.31;;;13.24;74.46
20889;BME280;10604;51.976;7.594;2023-04-15T12:51:50;100553.63;;;13.34;74.67
20889;BME280;10604;51.976;7.594;2023-04-15T12:54:17;100558.84;;;13.75;74.05
20889;BME280;10604;51.976;7.594;2023-04-15T12:56:43;100562.50;;;13.33;74.16
20889;BME280;10604;51.976;7.594;2023-04-15T12:59:10;100563.09;;;13.40;74.07
20889;BME280;10604;51.976;7.594;2023-04-15T13:01:35;100566.09;;;13.51;74.14
20889;BME280;10604;51.976;7.594;2023-04-15T13:04:01;100564.59;;;13.45;74.56
20889;BME280;10604;51.976;7.594;2023-04-15T13:06:26;100567.13;;;13.48;74.97
20889;BME280;10604;51.976;7.594;2023-04-15T13:08:53;100567.25;;;13.45;75.18
20889;BME280;10604;51.976;7.594;2023-04-15T13:11:22;100570.69;;;13.47;75.19